Time;durP1;ratioP1;P1;durP2;ratioP2;P2;SDS_P1;SDS_P2;PMS_P1;PMS_P2;Temp;Humidity;BMP_temperature;BMP_pressure;BME280_temperature;BME280_humidity;BME280_pressure;Samples;Min_cycle;Max_cycle;Signal;HPM_P1;HPM_P2
2020/12/31 00:01:40;;;;;;;23.95;12.18;;;;;;;2.03;100.00;97162.88;4963772;28;20074;-74
2020/12/31 00:04:06;;;;;;;20.70;11.43;;;;;;;2.09;100.00;97169.91;4961304;28;20469;-85
2020/12/31 00:06:32;;;;;;;16.77;10.63;;;;;;;2.02;100.00;97173.91;4962626;28;20031;-77
2020/12/31 00:08:58;;;;;;;15.75;9.82;;;;;;;2.09;100.00;97171.78;4960717;28;20030;-80
2020/12/31 00:11:23;;;;;;;17.58;10.25;;;;;;;2.18;100.00;97170.22;4963381;28;20528;-77
2020/12/31 00:13:49;;;;;;;16.73;11.02;;;;;;;2.19;100.00;97171.03;4944633;28;20081;-79
2020/12/31 00:16:14;;;;;;;15.63;8.90;;;;;;;2.26;100.00;97174.28;4962537;28;20057;-76
2020/12/31 00:18:39;;;;;;;;;;;;;;;2.13;100.00;97175.59;4964500;28;20437;-81
2020/12/31 00:21:05;;;;;;;15.65;9.63;;;;;;;2.17;100.00;97177.50;4944806;28;19915;-76
2020/12/31 00:23:30;;;;;;;;;;;;;;;2.25;100.00;97180.78;4963096;28;20031;-77
2020/12/31 00:25:56;;;;;;;17.77;9.10;;;;;;;2.14;100.00;97179.91;4963014;28;19993;-76
2020/12/31 00:28:22;;;;;;;26.45;11.68;;;;;;;1.98;100.00;97180.88;4965655;28;20027;-75
2020/12/31 00:30:48;;;;;;;21.77;10.77;;;;;;;2.03;100.00;97187.13;4964857;28;20061;-82
2020/12/31 00:33:15;;;;;;;24.50;12.18;;;;;;;1.91;100.00;97183.78;4964624;28;20027;-76
2020/12/31 00:35:42;;;;;;;21.55;9.98;;;;;;;2.08;100.00;97184.47;4949796;28;20027;-78
2020/12/31 00:38:07;;;;;;;23.20;12.00;;;;;;;2.16;100.00;97183.97;4965838;28;20027;-76
2020/12/31 00:40:33;;;;;;;20.60;11.70;;;;;;;2.13;100.00;97184.47;4968386;28;20033;-75
2020/12/31 00:43:00;;;;;;;17.92;10.07;;;;;;;1.99;100.00;97191.41;4967642;28;20031;-74
2020/12/31 00:45:26;;;;;;;18.13;12.18;;;;;;;1.91;100.00;97197.28;4970091;28;20037;-76
2020/12/31 00:47:52;;;;;;;21.95;10.73;;;;;;;1.73;100.00;97191.47;4975824;28;20035;-80
2020/12/31 00:50:17;;;;;;;21.20;11.40;;;;;;;1.81;100.00;97191.00;4964211;28;20027;-77
2020/12/31 00:52:42;;;;;;;;;;;;;;;1.82;100.00;97198.00;4975792;28;20023;-75
2020/12/31 00:55:08;;;;;;;20.77;10.35;;;;;;;1.76;100.00;97197.16;4971118;28;19925;-78
2020/12/31 00:57:33;;;;;;;26.88;12.70;;;;;;;1.75;100.00;97194.75;4952158;28;20023;-76
2020/12/31 00:59:58;;;;;;;24.23;12.70;;;;;;;1.73;100.00;97197.69;4971575;28;20029;-76
2020/12/31 01:02:24;;;;;;;18.45;10.57;;;;;;;1.74;100.00;97199.31;4970244;28;20019;-77
2020/12/31 01:04:49;;;;;;;;;;;;;;;1.73;100.00;97208.47;4951704;28;20448;-75
2020/12/31 01:07:16;;;;;;;14.93;10.13;;;;;;;1.79;100.00;97210.13;4951406;28;20360;-77
2020/12/31 01:09:41;;;;;;;22.88;9.65;;;;;;;1.75;100.00;97213.59;4947348;28;20385;-81
2020/12/31 01:12:07;;;;;;;20.50;12.13;;;;;;;1.69;100.00;97210.06;4953006;28;20035;-75
2020/12/31 01:14:32;;;;;;;;;;;;;;;1.73;100.00;97213.03;4965268;28;20007;-78
2020/12/31 01:16:57;;;;;;;19.40;9.65;;;;;;;1.72;100.00;97208.72;4963886;28;19947;-74
2020/12/31 01:19:23;;;;;;;;;;;;;;;1.70;100.00;97214.38;4959080;28;20106;-74
2020/12/31 01:21:48;;;;;;;21.92;11.25;;;;;;;1.67;100.00;97217.56;4959269;28;19922;-74
2020/12/31 01:24:13;;;;;;;;;;;;;;;1.71;100.00;97232.19;4945028;28;20019;-74
2020/12/31 01:26:39;;;;;;;16.45;11.30;;;;;;;1.65;100.00;97219.72;4961809;28;19942;-76
2020/12/31 01:29:04;;;;;;;18.38;10.27;;;;;;;1.78;100.00;97222.00;4944681;28;20111;-74
2020/12/31 01:31:30;;;;;;;21.40;10.73;;;;;;;1.77;100.00;97224.94;4940503;29;20449;-84
2020/12/31 01:33:56;;;;;;;19.88;10.98;;;;;;;1.71;100.00;97221.41;4953032;29;20054;-76
2020/12/31 01:36:22;;;;;;;21.30;11.80;;;;;;;1.77;100.00;97224.94;4952467;29;20039;-76
2020/12/31 01:38:47;;;;;;;26.38;14.35;;;;;;;1.76;100.00;97213.34;4952721;28;20035;-77
2020/12/31 01:41:13;;;;;;;26.95;15.23;;;;;;;1.65;100.00;97227.00;4962261;28;20468;-76
2020/12/31 01:43:39;;;;;;;21.67;11.23;;;;;;;1.70;100.00;97230.53;4962599;28;20038;-75
2020/12/31 01:46:09;;;;;;;18.17;10.98;;;;;;;1.84;100.00;97239.84;4960104;28;20031;-76
2020/12/31 01:48:34;;;;;;;23.20;11.63;;;;;;;1.77;100.00;97233.84;4960701;28;20023;-77
2020/12/31 01:51:00;;;;;;;19.25;11.05;;;;;;;2.00;100.00;97235.38;4961603;28;20049;-76
2020/12/31 01:53:25;;;;;;;;;;;;;;;1.88;100.00;97232.84;4943410;28;20059;-76
2020/12/31 01:55:50;;;;;;;18.27;10.45;;;;;;;1.73;100.00;97234.59;4965712;28;20008;-75
2020/12/31 01:58:16;;;;;;;;;;;;;;;1.69;100.00;97231.63;4961360;28;20062;-76
2020/12/31 02:00:41;;;;;;;17.58;9.65;;;;;;;1.68;100.00;97221.09;4963240;28;20364;-76
2020/12/31 02:03:06;;;;;;;;;;;;;;;1.67;100.00;97220.28;4954969;28;20178;-75
2020/12/31 02:05:32;;;;;;;25.20;9.82;;;;;;;1.62;100.00;97217.53;4953401;28;19925;-76
2020/12/31 02:07:57;;;;;;;;;;;;;;;1.75;100.00;97219.81;4954334;28;20094;-77
2020/12/31 02:10:23;;;;;;;21.55;9.80;;;;;;;1.71;100.00;97223.28;4971672;28;19917;-76
2020/12/31 02:12:50;;;;;;;21.77;10.90;;;;;;;1.90;100.00;97230.72;4954242;28;20065;-75
2020/12/31 02:15:16;;;;;;;20.65;11.07;;;;;;;1.79;100.00;97223.59;4971080;28;20082;-77
2020/12/31 02:17:43;;;;;;;21.23;10.07;;;;;;;2.00;100.00;97229.97;4954163;28;20051;-77
2020/12/31 02:20:09;;;;;;;20.10;10.98;;;;;;;1.85;100.00;97222.56;4955479;28;20034;-76
2020/12/31 02:22:35;;;;;;;16.40;10.38;;;;;;;2.00;100.00;97230.81;4975409;28;20480;-76
2020/12/31 02:25:00;;;;;;;16.80;9.02;;;;;;;2.00;100.00;97232.69;4975819;28;20030;-77
2020/12/31 02:27:25;;;;;;;15.75;10.38;;;;;;;1.97;100.00;97231.28;4957838;28;20027;-77
2020/12/31 02:29:53;;;;;;;18.42;10.43;;;;;;;1.99;100.00;97233.75;4975220;28;20058;-77
2020/12/31 02:32:18;;;;;;;21.05;10.90;;;;;;;2.02;100.00;97233.22;4975249;28;20444;-77
2020/12/31 02:34:44;;;;;;;19.77;11.35;;;;;;;1.85;100.00;97230.66;4974652;28;20035;-77
2020/12/31 02:37:09;;;;;;;21.10;10.05;;;;;;;1.86;100.00;97235.00;4975138;28;20027;-80
2020/12/31 02:39:35;;;;;;;16.95;9.10;;;;;;;1.92;100.00;97233.13;4974756;28;20097;-79
2020/12/31 02:42:00;;;;;;;;;;;;;;;2.07;100.00;97242.16;4958107;28;20022;-77
2020/12/31 02:44:25;;;;;;;20.38;10.77;;;;;;;1.93;100.00;97235.59;4975002;28;20272;-80
2020/12/31 02:46:51;;;;;;;17.38;11.00;;;;;;;1.92;100.00;97239.34;4974900;28;20081;-77
2020/12/31 02:49:16;;;;;;;;;;;;;;;1.95;100.00;97238.84;4974871;28;20031;-78
2020/12/31 02:51:41;;;;;;;15.25;8.70;;;;;;;1.94;100.00;97229.09;4974731;28;19914;-80
2020/12/31 02:54:07;;;;;;;;;;;;;;;1.94;100.00;97234.50;4975565;28;20462;-78
2020/12/31 02:56:32;;;;;;;19.20;10.40;;;;;;;1.95;100.00;97238.84;4974826;28;20068;-80
2020/12/31 02:58:57;;;;;;;;;;;;;;;1.94;100.00;97247.19;4975297;28;20046;-77
2020/12/31 03:01:23;;;;;;;19.30;9.25;;;;;;;1.91;100.00;97240.41;4974852;28;19929;-76
2020/12/31 03:03:52;;;;;;;24.20;11.90;;;;;;;1.92;100.00;97239.34;4957523;28;20030;-80
2020/12/31 03:06:17;;;;;;;20.42;11.45;;;;;;;1.88;100.00;97248.22;4974691;28;20122;-77
2020/12/31 03:08:43;;;;;;;19.98;11.75;;;;;;;1.92;100.00;97242.03;4974840;28;20540;-75
2020/12/31 03:11:14;;;;;;;22.65;11.52;;;;;;;2.10;100.00;97246.22;4966755;28;20028;-79
2020/12/31 03:13:40;;;;;;;21.85;11.00;;;;;;;2.10;100.00;97238.94;4968115;28;20031;-78
2020/12/31 03:16:05;;;;;;;25.02;12.98;;;;;;;2.02;100.00;97235.91;4971547;28;20408;-80
2020/12/31 03:18:30;;;;;;;27.75;13.05;;;;;;;2.00;100.00;97241.59;4956446;28;20428;-76
2020/12/31 03:20:56;;;;;;;21.30;12.52;;;;;;;1.98;100.00;97235.63;4973852;28;20547;-80
2020/12/31 03:23:21;;;;;;;16.80;10.77;;;;;;;2.20;100.00;97245.47;4974208;28;20018;-78
2020/12/31 03:25:47;;;;;;;20.27;10.68;;;;;;;2.03;100.00;97232.97;4974679;28;20533;-79
2020/12/31 03:28:16;;;;;;;20.90;12.43;;;;;;;2.06;100.00;97251.34;4955391;28;20101;-79
2020/12/31 03:30:44;;;;;;;21.40;11.65;;;;;;;2.15;100.00;97255.19;4954649;29;20023;-80
2020/12/31 03:33:12;;;;;;;24.17;11.73;;;;;;;2.17;100.00;97252.19;4953830;29;20094;-81
2020/12/31 03:35:46;;;;;;;21.40;10.00;;;;;;;2.21;100.00;97252.50;4954665;29;20082;-79
2020/12/31 03:38:13;;;;;;;21.23;11.15;;;;;;;2.15;100.00;97244.38;4954337;29;20028;-77
2020/12/31 03:40:38;;;;;;;16.42;10.40;;;;;;;2.20;100.00;97240.91;4953566;29;20489;-77
2020/12/31 03:43:04;;;;;;;19.25;11.45;;;;;;;2.03;100.00;97246.47;4953547;29;20078;-78
2020/12/31 03:45:31;;;;;;;29.40;12.02;;;;;;;1.98;100.00;97246.41;4936176;29;20019;-77
2020/12/31 03:47:56;;;;;;;21.73;11.38;;;;;;;2.05;100.00;97244.31;4952989;29;20023;-77
2020/12/31 03:50:22;;;;;;;21.90;11.80;;;;;;;2.14;100.00;97237.34;4953257;29;20651;-80
2020/12/31 03:52:48;;;;;;;22.88;11.32;;;;;;;2.22;100.00;97248.75;4953915;29;20046;-78
2020/12/31 03:55:14;;;;;;;20.40;9.40;;;;;;;2.22;100.00;97254.13;4955159;29;20052;-80
2020/12/31 03:57:39;;;;;;;22.95;10.68;;;;;;;2.08;100.00;97254.56;4956597;29;20389;-81
2020/12/31 04:00:05;;;;;;;;;;;;;;;2.24;100.00;97251.97;4938331;29;20114;-79
2020/12/31 04:02:30;;;;;;;19.90;10.52;;;;;;;2.24;100.00;97243.88;4953043;29;19965;-80
2020/12/31 04:04:55;;;;;;;18.75;10.80;;;;;;;2.32;100.00;97238.03;4939639;28;20108;-79
2020/12/31 04:07:21;;;;;;;16.13;8.45;;;;;;;2.29;100.00;97254.72;4973392;28;20034;-80
2020/12/31 04:09:47;;;;;;;16.33;7.97;;;;;;;2.25;100.00;97248.22;4956475;28;20019;-84
2020/12/31 04:12:12;;;;;;;;;;;;;;;2.25;100.00;97249.03;4956455;28;20070;-84
2020/12/31 04:14:37;;;;;;;12.00;7.07;;;;;;;2.35;100.00;97253.69;4956057;28;19933;-81
2020/12/31 04:17:03;;;;;;;18.48;9.45;;;;;;;2.35;100.00;97241.00;4958096;28;20031;-80
2020/12/31 04:19:28;;;;;;;;;;;;;;;2.35;100.00;97253.69;4976645;28;20062;-81
2020/12/31 04:21:54;;;;;;;13.10;7.40;;;;;;;2.20;100.00;97250.88;4959139;28;19914;-82
2020/12/31 04:24:19;;;;;;;;;;;;;;;2.24;100.00;97263.59;4960215;28;20038;-81
2020/12/31 04:26:49;;;;;;;15.77;8.63;;;;;;;2.24;100.00;97263.59;4959989;28;19914;-81
2020/12/31 04:29:14;;;;;;;18.42;9.43;;;;;;;2.22;100.00;97257.66;4976038;28;20463;-81
2020/12/31 04:31:40;;;;;;;24.13;10.63;;;;;;;2.16;100.00;97262.19;4963999;28;20091;-87
2020/12/31 04:34:05;;;;;;;20.35;10.55;;;;;;;2.11;100.00;97248.66;4964184;28;20054;-84
2020/12/31 04:36:30;;;;;;;;;;;;;;;2.17;100.00;97263.81;4956508;28;20031;-79
2020/12/31 04:38:56;;;;;;;16.50;8.73;;;;;;;2.10;100.00;97252.44;4973003;28;20375;-78
2020/12/31 04:41:21;;;;;;;;;;;;;;;2.05;100.00;97265.06;4972380;28;20026;-77
2020/12/31 04:43:46;;;;;;;14.45;7.25;;;;;;;2.00;100.00;97257.75;4972753;28;20299;-77
2020/12/31 04:46:14;;;;;;;;;;;;;;;2.12;100.00;97269.19;4973378;28;20034;-81
2020/12/31 04:48:41;;;;;;;19.50;8.18;;;;;;;2.19;100.00;97268.16;4955234;28;19918;-80
2020/12/31 04:51:10;;;;;;;14.43;8.05;;;;;;;2.20;100.00;97267.06;4972375;28;20093;-81
2020/12/31 04:53:37;;;;;;;16.38;8.50;;;;;;;2.14;100.00;97258.94;4972593;28;20030;-77
2020/12/31 04:56:03;;;;;;;15.45;8.50;;;;;;;2.16;100.00;97267.56;4955581;28;20030;-79
2020/12/31 04:58:29;;;;;;;16.70;7.53;;;;;;;2.24;100.00;97276.25;4955002;28;20069;-78
2020/12/31 05:00:55;;;;;;;16.65;8.90;;;;;;;2.01;100.00;97259.38;4955207;28;20062;-79
2020/12/31 05:03:20;;;;;;;12.25;8.05;;;;;;;1.97;100.00;97268.25;4972602;28;20518;-83
2020/12/31 05:05:53;;;;;;;16.73;8.07;;;;;;;1.88;100.00;97281.38;4954471;28;20431;-79
2020/12/31 05:08:18;;;;;;;12.75;8.10;;;;;;;1.85;100.00;97275.69;4971407;28;20023;-80
2020/12/31 05:10:56;;;;;;;17.55;9.73;;;;;;;1.75;100.00;97284.50;4953522;28;20476;-80
2020/12/31 05:13:21;;;;;;;20.30;9.43;;;;;;;1.56;100.00;97269.78;4972408;28;20030;-77
2020/12/31 05:15:47;;;;;;;17.75;9.95;;;;;;;1.53;100.00;97289.13;4954561;28;20059;-77
2020/12/31 05:18:18;;;;;;;;;;;;;;;1.56;100.00;97292.16;4972630;28;20041;-77
2020/12/31 05:20:46;;;;;;;19.33;8.98;;;;;;;1.55;100.00;97281.59;4954880;28;19914;-81
2020/12/31 05:23:16;;;;;;;16.60;9.43;;;;;;;1.70;100.00;97279.06;4972398;28;20030;-82
2020/12/31 05:25:42;;;;;;;17.55;9.02;;;;;;;1.68;100.00;97289.28;4972387;28;20388;-81
2020/12/31 05:28:24;;;;;;;16.48;8.65;;;;;;;1.59;100.00;97296.22;4955122;28;20388;-85
2020/12/31 05:30:50;;;;;;;16.10;9.98;;;;;;;1.52;100.00;97280.25;4972350;28;20034;-83
2020/12/31 05:33:30;;;;;;;16.80;11.13;;;;;;;1.56;100.00;97296.72;4972335;28;20027;-80
2020/12/31 05:36:21;;;;;;;18.90;12.45;;;;;;;1.42;100.00;97285.53;4972284;28;20031;-85
2020/12/31 05:39:02;;;;;;;21.85;10.23;;;;;;;1.47;100.00;97295.53;4954573;28;20489;-81
2020/12/31 05:41:29;;;;;;;16.15;9.30;;;;;;;1.42;100.00;97287.38;4972257;28;20166;-84
2020/12/31 05:43:56;;;;;;;17.33;10.07;;;;;;;1.57;100.00;97309.09;4971988;28;20050;-79
2020/12/31 05:46:22;;;;;;;16.33;8.00;;;;;;;1.65;100.00;97311.34;4954749;28;20073;-84
2020/12/31 05:49:00;;;;;;;17.90;8.95;;;;;;;1.58;100.00;97310.75;4972056;28;20030;-79
2020/12/31 05:51:44;;;;;;;20.83;10.98;;;;;;;1.60;100.00;97308.59;4972711;28;20034;-80
2020/12/31 05:54:13;;;;;;;15.35;8.55;;;;;;;1.64;100.00;97317.81;4973683;28;20050;-83
2020/12/31 05:56:43;;;;;;;14.68;10.13;;;;;;;1.75;100.00;97307.94;4959490;28;20031;-79
2020/12/31 05:59:28;;;;;;;15.25;8.88;;;;;;;1.73;100.00;97324.38;4959048;28;20105;-76
2020/12/31 06:02:02;;;;;;;13.02;7.60;;;;;;;1.63;100.00;97324.25;4959990;28;20495;-84
2020/12/31 06:04:30;;;;;;;17.63;9.80;;;;;;;1.64;100.00;97333.97;4977777;28;20033;-80
2020/12/31 06:06:59;;;;;;;14.50;8.23;;;;;;;1.59;100.00;97336.63;4976038;28;20034;-82
2020/12/31 06:09:29;;;;;;;16.15;9.82;;;;;;;1.51;100.00;97329.78;4976104;28;20030;-79
2020/12/31 06:12:00;;;;;;;15.02;7.32;;;;;;;1.52;100.00;97330.63;4976104;28;20114;-81
2020/12/31 06:14:30;;;;;;;12.77;8.90;;;;;;;1.59;100.00;97332.06;4976006;28;20041;-80
2020/12/31 06:17:01;;;;;;;13.95;8.75;;;;;;;1.57;100.00;97328.78;4960016;28;20479;-77
2020/12/31 06:19:31;;;;;;;14.55;8.38;;;;;;;1.59;100.00;97336.63;4958419;28;20031;-78
2020/12/31 06:22:07;;;;;;;14.85;8.15;;;;;;;1.65;100.00;97318.63;4975672;28;20027;-82
2020/12/31 06:24:36;;;;;;;11.07;8.50;;;;;;;1.61;100.00;97345.25;4975448;28;20026;-81
2020/12/31 06:27:07;;;;;;;11.35;7.43;;;;;;;1.66;100.00;97339.91;4975867;28;20472;-81
2020/12/31 06:29:38;;;;;;;18.42;9.43;;;;;;;1.74;100.00;97333.25;4975416;28;20070;-82
2020/12/31 06:32:11;;;;;;;14.90;8.95;;;;;;;1.69;100.00;97336.75;4957967;28;20037;-79
2020/12/31 06:34:36;;;;;;;12.90;8.50;;;;;;;1.84;100.00;97344.16;4958170;28;20110;-82
2020/12/31 06:37:08;;;;;;;12.75;8.10;;;;;;;1.82;100.00;97336.31;4975668;28;20113;-85
2020/12/31 06:39:33;;;;;;;15.35;9.50;;;;;;;1.79;100.00;97336.81;4957857;28;20042;-78
2020/12/31 06:41:58;;;;;;;13.68;8.82;;;;;;;1.83;100.00;97332.56;4956007;28;20038;-81
2020/12/31 06:44:27;;;;;;;;;;;;;;;1.99;100.00;97358.59;4940296;29;20473;-78
2020/12/31 06:46:53;;;;;;;15.38;8.50;;;;;;;1.94;100.00;97352.34;4961244;28;20351;-83
2020/12/31 06:49:18;;;;;;;19.63;10.32;;;;;;;1.93;100.00;97354.22;4975504;28;20057;-85
2020/12/31 06:51:44;;;;;;;21.00;11.93;;;;;;;1.91;100.00;97353.66;4975514;28;20031;-83
2020/12/31 06:54:11;;;;;;;15.23;9.73;;;;;;;1.97;100.00;97366.09;4977997;28;20029;-87
2020/12/31 06:56:50;;;;;;;19.15;9.65;;;;;;;2.00;100.00;97371.03;4979967;28;20039;-85
2020/12/31 06:59:36;;;;;;;16.38;10.35;;;;;;;1.86;100.00;97380.56;4967813;28;20540;-85
2020/12/31 07:02:19;;;;;;;20.30;10.05;;;;;;;1.61;100.00;97347.97;4938762;29;20031;-86
2020/12/31 07:04:45;;;;;;;15.50;8.73;;;;;;;1.78;100.00;97369.44;4956750;29;20035;-84
2020/12/31 07:07:19;;;;;;;15.95;10.93;;;;;;;1.73;100.00;97380.16;4939053;29;20027;-83
2020/12/31 07:09:54;;;;;;;16.70;7.75;;;;;;;1.95;100.00;97389.81;4960463;29;20449;-85
2020/12/31 07:12:37;;;;;;;14.93;7.50;;;;;;;2.00;100.00;97389.06;4939188;29;20027;-83
2020/12/31 07:15:05;;;;;;;15.45;8.45;;;;;;;2.00;100.00;97389.91;4938984;29;20051;-90
2020/12/31 07:17:35;;;;;;;16.80;11.25;;;;;;;2.01;100.00;97388.81;4964545;28;20114;-84
2020/12/31 07:20:03;;;;;;;14.48;8.88;;;;;;;2.03;100.00;97393.97;4964176;28;20023;-86
2020/12/31 07:22:29;;;;;;;13.55;8.50;;;;;;;1.85;100.00;97381.63;4963750;28;20563;-86
2020/12/31 07:24:57;;;;;;;14.65;8.93;;;;;;;1.91;100.00;97385.22;4965519;28;20023;-82
2020/12/31 07:27:27;;;;;;;12.77;8.75;;;;;;;1.87;100.00;97389.47;4945395;28;20428;-83
2020/12/31 07:30:19;;;;;;;18.17;11.02;;;;;;;1.79;100.00;97382.66;4963695;28;20792;-85
2020/12/31 07:33:05;;;;;;;18.05;10.38;;;;;;;1.81;100.00;97387.78;4959753;28;20078;-87
2020/12/31 07:35:41;;;;;;;17.92;11.63;;;;;;;2.03;100.00;97394.78;4949686;28;20084;-82
2020/12/31 07:38:11;;;;;;;12.87;6.93;;;;;;;2.12;100.00;97398.63;4951267;29;20032;-87
2020/12/31 07:40:48;;;;;;;15.60;9.90;;;;;;;2.20;100.00;97396.53;4965426;29;20040;-91
2020/12/31 07:43:14;;;;;;;;;;;;;;;2.15;100.00;97400.81;4955131;29;20049;-90
2020/12/31 07:45:45;;;;;;;15.35;9.30;;;;;;;2.16;100.00;97399.75;4977845;28;19970;-88
2020/12/31 07:48:11;;;;;;;19.10;10.05;;;;;;;2.17;100.00;97404.06;4967001;28;20102;-87
2020/12/31 07:50:37;;;;;;;16.48;8.82;;;;;;;2.11;100.00;97401.59;4979076;28;20046;-90
2020/12/31 07:53:07;;;;;;;14.73;9.27;;;;;;;2.14;100.00;97403.75;4979314;28;20018;-89
2020/12/31 07:55:35;;;;;;;13.77;8.50;;;;;;;2.19;100.00;97392.22;4993232;28;20094;-90
2020/12/31 07:58:01;;;;;;;12.70;7.43;;;;;;;2.41;100.00;97401.06;4956247;28;20125;-83
2020/12/31 08:00:27;;;;;;;15.50;8.68;;;;;;;2.55;100.00;97391.44;4959838;28;20030;-92
2020/12/31 08:02:56;;;;;;;11.27;7.80;;;;;;;2.90;100.00;97396.28;4960471;28;20027;-91
2020/12/31 08:05:24;;;;;;;13.52;7.80;;;;;;;2.68;100.00;97412.59;4975777;28;20031;-85
2020/12/31 08:07:55;;;;;;;14.02;8.15;;;;;;;2.80;100.00;97398.91;4966885;28;20034;-78
2020/12/31 08:10:21;;;;;;;13.70;8.10;;;;;;;3.05;100.00;97408.00;4959641;28;20023;-75
2020/12/31 08:12:58;;;;;;;14.57;7.45;;;;;;;2.83;100.00;97406.50;4944852;28;20049;-75
2020/12/31 08:15:25;;;;;;;10.40;6.68;;;;;;;2.86;100.00;97411.38;4943047;28;20110;-76
2020/12/31 08:17:53;;;;;;;10.07;7.10;;;;;;;3.13;100.00;97407.50;4943993;28;20042;-76
2020/12/31 08:20:20;;;;;;;12.15;9.05;;;;;;;3.29;100.00;97415.72;4965693;28;20082;-79
2020/12/31 08:22:50;;;;;;;23.02;8.23;;;;;;;3.48;99.52;97408.75;4943835;28;20182;-74
2020/12/31 08:25:24;;;;;;;12.05;7.65;;;;;;;3.60;97.34;97414.78;4944680;28;20039;-77
2020/12/31 08:27:51;;;;;;;12.32;8.13;;;;;;;3.27;97.60;97413.25;4950490;28;20026;-75
2020/12/31 08:30:19;;;;;;;13.77;7.03;;;;;;;3.06;98.25;97411.53;4957556;28;20114;-76
2020/12/31 08:32:51;;;;;;;9.65;8.27;;;;;;;3.10;97.98;97412.66;4952370;28;20373;-75
2020/12/31 08:35:24;;;;;;;12.18;7.25;;;;;;;3.09;97.96;97406.41;4959107;28;20039;-74
2020/12/31 08:38:23;;;;;;;11.60;7.78;;;;;;;3.42;96.87;97416.03;4956338;28;20027;-75
2020/12/31 08:40:53;;;;;;;12.50;7.50;;;;;;;3.49;97.17;97422.03;4958504;28;20039;-78
2020/12/31 08:43:41;;;;;;;10.90;6.45;;;;;;;3.64;95.36;97415.88;4955764;29;20038;-76
2020/12/31 08:46:16;;;;;;;13.70;6.75;;;;;;;3.98;95.76;97413.56;4945679;28;20035;-78
2020/12/31 08:48:42;;;;;;;12.18;6.97;;;;;;;3.97;93.99;97411.94;4944795;28;20039;-78
2020/12/31 08:51:07;;;;;;;9.90;6.43;;;;;;;3.99;91.81;97426.81;4963506;28;20027;-76
2020/12/31 08:53:47;;;;;;;10.95;5.75;;;;;;;3.72;93.37;97432.41;4948499;28;21205;-77
2020/12/31 08:56:13;;;;;;;4.65;4.15;;;;;;;3.79;92.12;97434.84;4949321;28;20419;-79
2020/12/31 08:58:38;;;;;;;6.75;4.47;;;;;;;3.73;93.71;97423.22;4950633;28;20035;-80
2020/12/31 09:01:03;;;;;;;;;;;;;;;3.57;92.85;97439.66;4944601;28;20066;-76
2020/12/31 09:03:29;;;;;;;8.00;4.63;;;;;;;3.45;93.63;97436.31;4968207;28;19918;-78
2020/12/31 09:05:55;;;;;;;;;;;;;;;3.51;93.46;97440.72;4937004;28;20030;-76
2020/12/31 09:08:20;;;;;;;7.32;4.90;;;;;;;3.64;94.27;97422.09;4962179;28;19913;-76
2020/12/31 09:10:46;;;;;;;10.93;6.82;;;;;;;3.75;94.18;97431.88;4964002;28;20110;-82
2020/12/31 09:13:17;;;;;;;;;;;;;;;3.75;95.06;97431.06;4970318;28;20031;-82
2020/12/31 09:15:43;;;;;;;6.55;5.00;;;;;;;3.74;95.53;97442.97;4945167;28;20397;-75
2020/12/31 09:18:16;;;;;;;6.45;3.75;;;;;;;3.56;94.83;97444.25;4965252;28;20118;-77
2020/12/31 09:20:42;;;;;;;4.55;3.45;;;;;;;3.74;94.32;97434.84;4958843;28;20081;-81
2020/12/31 09:23:11;;;;;;;5.63;3.60;;;;;;;3.98;94.68;97446.03;4959884;28;20401;-79
2020/12/31 09:25:50;;;;;;;5.13;3.47;;;;;;;3.83;94.51;97444.06;4946330;28;20813;-79
2020/12/31 09:28:17;;;;;;;7.82;5.03;;;;;;;3.83;95.05;97438.66;4961636;28;20059;-81
2020/12/31 09:30:42;;;;;;;7.75;5.63;;;;;;;3.78;94.71;97441.34;4961965;28;20031;-78
2020/12/31 09:33:08;;;;;;;7.15;4.68;;;;;;;3.65;94.94;97426.44;4944074;28;20601;-82
2020/12/31 09:35:33;;;;;;;;;;;;;;;4.05;94.19;97425.75;4945755;28;20027;-82
2020/12/31 09:37:59;;;;;;;8.88;5.38;;;;;;;3.95;93.99;97427.59;4971322;28;19956;-76
2020/12/31 09:40:25;;;;;;;8.48;5.07;;;;;;;4.07;95.10;97426.28;4952144;28;20129;-75
2020/12/31 09:42:51;;;;;;;8.55;4.82;;;;;;;3.95;95.21;97431.13;4951557;29;20038;-75
2020/12/31 09:45:17;;;;;;;6.68;5.05;;;;;;;3.87;94.49;97422.72;4934987;29;20031;-75
2020/12/31 09:47:42;;;;;;;5.28;3.80;;;;;;;3.75;95.06;97420.25;4936269;29;20043;-75
2020/12/31 09:50:09;;;;;;;7.38;4.45;;;;;;;3.97;95.50;97420.88;4962148;28;20019;-76
2020/12/31 09:52:36;;;;;;;7.63;4.90;;;;;;;4.03;95.86;97411.69;4958251;28;20035;-75
2020/12/31 09:55:01;;;;;;;8.98;4.93;;;;;;;4.16;95.88;97422.00;4960755;28;20038;-75
2020/12/31 09:57:27;;;;;;;8.75;5.18;;;;;;;4.24;95.20;97421.47;4961091;28;20038;-75
2020/12/31 09:59:52;;;;;;;7.63;5.38;;;;;;;4.00;95.61;97412.22;4957300;28;20035;-76
2020/12/31 10:02:17;;;;;;;;;;;;;;;3.91;96.30;97419.22;4945625;28;20553;-75
2020/12/31 10:04:43;;;;;;;7.88;5.05;;;;;;;3.90;97.30;97412.19;4969899;28;19929;-75
2020/12/31 10:07:08;;;;;;;7.53;4.35;;;;;;;3.89;97.07;97415.97;4952868;28;20026;-75
2020/12/31 10:09:34;;;;;;;6.53;5.10;;;;;;;3.81;97.28;97413.78;4951461;28;20122;-77
2020/12/31 10:11:59;;;;;;;8.13;5.63;;;;;;;3.83;98.23;97417.03;4952858;28;20030;-76
2020/12/31 10:14:24;;;;;;;8.68;5.53;;;;;;;3.92;98.45;97412.72;4969819;28;20058;-75
2020/12/31 10:16:50;;;;;;;;;;;;;;;3.94;98.87;97413.28;4970466;28;20496;-75
2020/12/31 10:19:16;;;;;;;10.80;5.70;;;;;;;3.99;98.44;97402.47;4970596;28;19918;-85
2020/12/31 10:21:45;;;;;;;8.50;5.63;;;;;;;4.00;98.10;97404.09;4952660;28;20023;-75
2020/12/31 10:24:11;;;;;;;8.23;5.95;;;;;;;4.09;97.92;97410.63;4952528;28;20066;-75
2020/12/31 10:26:36;;;;;;;11.13;6.63;;;;;;;4.13;97.51;97405.50;4970890;28;20110;-76
2020/12/31 10:29:02;;;;;;;9.70;5.80;;;;;;;4.23;96.25;97405.47;4970427;28;20480;-75
2020/12/31 10:31:27;;;;;;;;;;;;;;;4.26;95.93;97411.19;4966226;28;20027;-74
2020/12/31 10:33:52;;;;;;;7.07;5.40;;;;;;;4.21;95.51;97397.66;4959301;28;19973;-74
2020/12/31 10:36:18;;;;;;;7.32;5.43;;;;;;;4.10;95.58;97411.44;4961260;28;20038;-74
2020/12/31 10:38:43;;;;;;;7.80;5.43;;;;;;;4.11;95.09;97394.91;4958800;28;20128;-76
2020/12/31 10:41:13;;;;;;;9.65;5.38;;;;;;;4.15;95.45;97404.13;4929592;28;20432;-74
2020/12/31 10:43:38;;;;;;;9.25;6.32;;;;;;;4.16;95.01;97405.78;4962701;28;20031;-75
2020/12/31 10:46:03;;;;;;;8.95;6.20;;;;;;;4.15;95.54;97403.31;4963092;28;20417;-75
2020/12/31 10:48:29;;;;;;;;;;;;;;;4.17;92.87;97396.56;4965625;28;20079;-74
2020/12/31 10:50:58;;;;;;;7.32;5.18;;;;;;;4.14;92.59;97374.63;4963726;28;19926;-75
2020/12/31 10:53:24;;;;;;;7.30;4.20;;;;;;;3.99;92.91;97370.00;4962390;28;20028;-75
2020/12/31 10:55:49;;;;;;;6.72;4.72;;;;;;;4.32;93.61;97383.03;4963921;28;20031;-75
2020/12/31 10:58:14;;;;;;;10.05;7.55;;;;;;;4.48;92.38;97388.47;4965659;28;20035;-74
2020/12/31 11:00:40;;;;;;;7.50;5.40;;;;;;;4.41;91.55;97379.81;4966936;28;20031;-77
2020/12/31 11:03:05;;;;;;;6.13;4.63;;;;;;;4.38;92.26;97378.47;4956934;28;20034;-76
2020/12/31 11:05:31;;;;;;;6.72;5.55;;;;;;;4.29;91.85;97374.66;4946139;28;20027;-75
2020/12/31 11:07:56;;;;;;;6.35;4.30;;;;;;;4.33;92.26;97376.53;4963200;28;20031;-74
2020/12/31 11:10:22;;;;;;;6.20;4.40;;;;;;;4.43;92.04;97380.34;4959086;28;20912;-75
2020/12/31 11:12:47;;;;;;;6.00;4.40;;;;;;;4.29;92.14;97377.38;4962492;28;20035;-76
2020/12/31 11:15:12;;;;;;;;;;;;;;;4.35;92.93;97375.47;4951775;28;20039;-75
2020/12/31 11:17:38;;;;;;;8.82;5.38;;;;;;;4.31;93.32;97369.78;4968381;28;20352;-76
2020/12/31 11:20:03;;;;;;;;;;;;;;;4.28;94.35;97370.31;4967306;28;20026;-79
2020/12/31 11:22:28;;;;;;;10.68;7.13;;;;;;;4.24;95.33;97369.22;4973346;28;19910;-82
2020/12/31 11:24:54;;;;;;;10.88;7.45;;;;;;;4.21;95.18;97369.75;4970966;28;20378;-82
2020/12/31 11:27:19;;;;;;;10.82;7.20;;;;;;;4.09;95.64;97370.03;4954560;29;20035;-89
2020/12/31 11:29:45;;;;;;;11.57;7.93;;;;;;;4.04;95.67;97375.41;4967905;28;20018;-76
2020/12/31 11:32:10;;;;;;;12.15;7.55;;;;;;;4.04;96.23;97374.63;4970203;28;20020;-75
2020/12/31 11:34:35;;;;;;;;;;;;;;;3.95;96.71;97365.38;4965795;28;20031;-78
2020/12/31 11:37:04;;;;;;;11.13;6.97;;;;;;;3.97;96.72;97374.06;4965319;28;20014;-75
2020/12/31 11:39:30;;;;;;;10.88;8.43;;;;;;;3.89;96.53;97367.28;4964231;28;20051;-77